createdAt,value
2022-12-06T00:01:46.333Z,6.74
2022-12-06T00:04:18.085Z,7.37
2022-12-06T00:06:50.494Z,7.02
2022-12-06T00:09:29.109Z,6.89
2022-12-06T00:12:00.736Z,7.00
2022-12-06T00:14:32.435Z,6.86
2022-12-06T00:17:04.033Z,6.52
2022-12-06T00:19:35.704Z,6.48
2022-12-06T00:22:07.340Z,6.53
2022-12-06T00:24:39.016Z,6.08
2022-12-06T00:27:10.609Z,6.18
2022-12-06T00:29:42.233Z,6.13
2022-12-06T00:32:19.262Z,5.75
2022-12-06T00:34:51.312Z,6.02
2022-12-06T00:37:23.037Z,6.04
2022-12-06T00:39:54.711Z,6.24
2022-12-06T00:42:26.321Z,6.53
2022-12-06T00:44:57.908Z,6.06
2022-12-06T00:47:29.906Z,6.27
2022-12-06T00:50:01.736Z,6.42
2022-12-06T00:52:33.689Z,6.32
2022-12-06T00:55:05.737Z,6.46
2022-12-06T00:57:37.352Z,6.58
2022-12-06T01:00:09.538Z,7.06
2022-12-06T01:02:41.198Z,6.68
2022-12-06T01:05:12.845Z,6.61
2022-12-06T01:07:44.712Z,6.78
2022-12-06T01:10:16.584Z,6.77
2022-12-06T01:12:48.196Z,7.87
2022-12-06T01:15:19.769Z,8.16
2022-12-06T01:17:51.422Z,7.04
2022-12-06T01:20:23.030Z,7.22
2022-12-06T01:22:54.657Z,7.28
2022-12-06T01:25:27.965Z,7.89
2022-12-06T01:28:01.075Z,7.88
2022-12-06T01:30:32.668Z,8.19
2022-12-06T01:33:04.237Z,8.93
2022-12-06T01:35:40.166Z,9.32
2022-12-06T01:38:11.718Z,10.60
2022-12-06T01:40:46.365Z,10.59
2022-12-06T01:43:35.915Z,10.91
2022-12-06T01:46:28.638Z,11.60
2022-12-06T01:49:12.161Z,12.13
2022-12-06T01:51:49.400Z,12.07
2022-12-06T01:54:25.453Z,12.60
2022-12-06T01:56:59.002Z,12.79
2022-12-06T01:59:31.161Z,12.71
2022-12-06T02:02:03.402Z,12.75
2022-12-06T02:04:36.122Z,12.53
2022-12-06T02:07:08.817Z,12.97
2022-12-06T02:09:41.543Z,13.39
2022-12-06T02:12:15.177Z,13.63
2022-12-06T02:14:52.939Z,13.58
2022-12-06T02:17:46.109Z,14.20
2022-12-06T02:20:31.986Z,13.94
2022-12-06T02:23:24.421Z,14.39
2022-12-06T02:26:19.024Z,14.74
2022-12-06T02:28:53.678Z,14.74
2022-12-06T02:31:56.325Z,15.35
2022-12-06T02:34:59.021Z,15.82
2022-12-06T02:37:43.769Z,15.47
2022-12-06T02:40:32.081Z,15.75
2022-12-06T02:43:15.745Z,16.14
2022-12-06T02:45:55.067Z,16.84
2022-12-06T02:48:27.062Z,16.41
2022-12-06T02:51:08.710Z,15.75
2022-12-06T02:53:47.662Z,16.56
2022-12-06T02:56:19.731Z,16.59
2022-12-06T02:58:51.343Z,17.04
2022-12-06T03:01:32.987Z,17.74
2022-12-06T03:04:16.901Z,18.24
2022-12-06T03:07:25.558Z,18.49
2022-12-06T03:10:21.542Z,19.29
2022-12-06T03:13:06.939Z,18.81
2022-12-06T03:15:59.864Z,19.06
2022-12-06T03:18:58.443Z,18.34
2022-12-06T03:21:41.375Z,19.07
2022-12-06T03:24:15.765Z,19.13
2022-12-06T03:26:51.189Z,18.92
2022-12-06T03:29:27.973Z,19.20
2022-12-06T03:32:05.086Z,19.74
2022-12-06T03:34:41.092Z,21.23
2022-12-06T03:37:18.789Z,22.61
2022-12-06T03:40:13.681Z,23.82
2022-12-06T03:42:47.189Z,25.19
2022-12-06T03:45:26.528Z,26.70
2022-12-06T03:48:12.557Z,26.49
2022-12-06T03:50:58.493Z,28.27
2022-12-06T03:53:31.164Z,28.57
2022-12-06T03:56:02.746Z,28.97
2022-12-06T03:58:34.460Z,28.36
2022-12-06T04:01:06.265Z,28.98
2022-12-06T04:03:38.145Z,29.67
2022-12-06T04:06:11.033Z,29.20
2022-12-06T04:08:42.732Z,29.41
2022-12-06T04:11:14.289Z,31.15
2022-12-06T04:13:46.101Z,32.93
2022-12-06T04:16:17.793Z,32.18
2022-12-06T04:18:49.460Z,31.11
2022-12-06T04:21:21.454Z,31.90
2022-12-06T04:23:53.027Z,35.09
2022-12-06T04:26:25.105Z,35.52
2022-12-06T04:28:56.740Z,34.56
2022-12-06T04:31:28.550Z,34.64
2022-12-06T04:34:00.394Z,34.99
2022-12-06T04:36:32.039Z,34.50
2022-12-06T04:39:03.978Z,35.09
2022-12-06T04:41:35.504Z,35.64
2022-12-06T04:44:07.200Z,38.70
2022-12-06T04:46:39.388Z,40.36
2022-12-06T04:49:11.074Z,40.19
2022-12-06T04:51:42.744Z,38.62
2022-12-06T04:54:14.389Z,39.31
2022-12-06T04:56:45.996Z,38.91
2022-12-06T04:59:17.607Z,38.61
2022-12-06T05:01:49.418Z,38.10
2022-12-06T05:04:23.203Z,35.79
2022-12-06T05:06:54.822Z,34.30
2022-12-06T05:09:26.537Z,33.36
2022-12-06T05:11:58.335Z,32.28
2022-12-06T05:14:30.064Z,32.80
2022-12-06T05:17:03.240Z,31.72
2022-12-06T05:19:34.871Z,30.45
2022-12-06T05:22:06.512Z,30.04
2022-12-06T05:24:38.404Z,30.27
2022-12-06T05:27:10.041Z,29.71
2022-12-06T05:29:41.643Z,29.85
2022-12-06T05:32:13.292Z,30.38
2022-12-06T05:34:44.945Z,30.63
2022-12-06T05:37:16.749Z,29.95
2022-12-06T05:39:48.386Z,29.05
2022-12-06T05:42:22.546Z,29.65
2022-12-06T05:44:54.398Z,30.03
2022-12-06T05:47:25.938Z,29.24
2022-12-06T05:49:57.707Z,31.83
2022-12-06T05:52:29.381Z,31.82
2022-12-06T05:55:01.020Z,34.09
2022-12-06T05:57:32.647Z,31.81
2022-12-06T06:00:05.720Z,31.87
2022-12-06T06:02:38.439Z,31.68
2022-12-06T06:05:10.437Z,30.48
2022-12-06T06:07:42.117Z,30.37
2022-12-06T06:10:13.894Z,30.68
2022-12-06T06:12:45.798Z,30.74
2022-12-06T06:15:18.687Z,29.93
2022-12-06T06:17:50.820Z,30.58
2022-12-06T06:20:22.501Z,31.00
2022-12-06T06:22:54.380Z,28.98
2022-12-06T06:25:26.302Z,29.42
2022-12-06T06:27:58.323Z,29.75
2022-12-06T06:30:29.993Z,29.61
2022-12-06T06:33:01.786Z,30.10
2022-12-06T06:35:33.716Z,30.29
2022-12-06T06:38:05.576Z,29.82
2022-12-06T06:40:37.151Z,29.39
2022-12-06T06:43:08.970Z,30.27
2022-12-06T06:45:41.132Z,31.28
2022-12-06T06:48:12.815Z,32.53
2022-12-06T06:50:44.331Z,33.08
2022-12-06T06:53:15.908Z,33.24
2022-12-06T06:55:48.303Z,34.19
2022-12-06T06:58:19.869Z,33.46
2022-12-06T07:01:00.351Z,33.29
2022-12-06T07:03:32.222Z,33.07
2022-12-06T07:06:08.248Z,33.60
2022-12-06T07:08:41.443Z,33.87
2022-12-06T07:11:14.597Z,33.78
2022-12-06T07:13:51.189Z,33.85
2022-12-06T07:16:24.578Z,30.68
2022-12-06T07:18:56.345Z,31.03
2022-12-06T07:21:27.916Z,31.19
2022-12-06T07:24:00.116Z,33.28
2022-12-06T07:26:31.655Z,33.22
2022-12-06T07:29:03.197Z,35.62
2022-12-06T07:31:34.879Z,37.49
2022-12-06T07:34:06.490Z,36.94
2022-12-06T07:36:38.113Z,36.66
2022-12-06T07:39:14.549Z,38.77
2022-12-06T07:41:46.502Z,40.40
2022-12-06T07:44:37.459Z,42.16
2022-12-06T07:47:09.071Z,42.42
2022-12-06T07:49:40.708Z,42.76
2022-12-06T07:52:12.302Z,44.57
2022-12-06T07:54:43.876Z,44.14
2022-12-06T11:08:44.577Z,24.24
2022-12-06T11:11:27.489Z,24.02
2022-12-06T11:14:07.052Z,24.30
2022-12-06T11:16:47.934Z,23.79
2022-12-06T11:19:38.064Z,24.36
2022-12-06T11:22:15.536Z,22.99
2022-12-06T11:24:56.915Z,23.95
2022-12-06T11:27:33.948Z,23.08
2022-12-06T11:34:11.262Z,21.61
2022-12-06T11:36:45.136Z,20.75
2022-12-06T11:39:18.168Z,20.14
2022-12-06T11:41:54.952Z,22.43
2022-12-06T11:44:37.589Z,20.77
2022-12-06T11:47:17.319Z,19.40
2022-12-06T11:49:52.467Z,17.42
2022-12-06T11:52:43.693Z,16.86
2022-12-06T11:55:24.046Z,18.03
2022-12-06T11:58:07.209Z,20.36
2022-12-06T12:00:59.726Z,19.35
2022-12-06T12:03:36.966Z,16.43
2022-12-06T12:06:21.676Z,14.59
2022-12-06T12:09:05.590Z,16.38
2022-12-06T12:11:39.334Z,17.14
2022-12-06T12:14:24.462Z,16.64
2022-12-06T12:17:01.694Z,16.58
2022-12-06T12:20:00.697Z,16.33
2022-12-06T12:22:38.204Z,15.93
2022-12-06T12:25:27.690Z,16.14
2022-12-06T12:28:01.321Z,16.08
2022-12-06T12:30:38.367Z,16.51
2022-12-06T12:33:16.424Z,17.02
2022-12-06T12:36:16.444Z,17.47
2022-12-06T12:38:55.271Z,18.82
2022-12-06T12:41:32.930Z,18.43
2022-12-06T12:44:37.000Z,17.58
2022-12-06T12:47:17.797Z,16.00
2022-12-06T12:50:18.364Z,16.50
2022-12-06T12:52:51.479Z,15.98
2022-12-06T12:55:27.644Z,16.30
2022-12-06T12:58:00.450Z,16.31
2022-12-06T13:00:41.680Z,15.51
2022-12-06T13:03:49.649Z,14.93
2022-12-06T13:06:31.107Z,13.96
2022-12-06T13:09:06.161Z,13.91
2022-12-06T13:11:46.848Z,14.01
2022-12-06T13:14:22.501Z,14.33
2022-12-06T13:17:00.239Z,14.10
2022-12-06T13:19:53.070Z,14.14
2022-12-06T13:22:29.616Z,14.24
2022-12-06T13:25:05.234Z,13.81
2022-12-06T13:27:42.814Z,14.71
2022-12-06T13:30:24.073Z,14.73
2022-12-06T13:33:05.830Z,14.35
2022-12-06T13:35:45.430Z,14.73
2022-12-06T13:38:20.093Z,14.71
2022-12-06T13:40:57.727Z,14.75
2022-12-06T13:43:29.273Z,14.18
2022-12-06T13:46:06.878Z,14.23
2022-12-06T13:48:54.875Z,13.95
2022-12-06T13:51:32.268Z,14.32
2022-12-06T13:54:03.831Z,14.13
2022-12-06T13:56:35.462Z,14.07
2022-12-06T13:59:13.161Z,14.43
2022-12-06T14:01:53.433Z,14.07
2022-12-06T14:07:05.311Z,14.43
2022-12-06T14:09:49.725Z,14.65
2022-12-06T14:12:24.530Z,14.29
2022-12-06T14:15:05.760Z,14.56
2022-12-06T14:20:33.986Z,14.28
2022-12-06T14:23:28.103Z,14.75
2022-12-06T14:26:21.347Z,15.30
2022-12-06T14:28:56.082Z,15.35
2022-12-06T14:31:48.037Z,15.70
2022-12-06T14:34:31.012Z,16.05
2022-12-06T14:37:19.500Z,16.35
2022-12-06T14:39:54.563Z,16.12
2022-12-06T14:42:26.313Z,16.22
2022-12-06T14:45:02.314Z,15.59
2022-12-06T14:47:34.626Z,16.55
2022-12-06T14:50:27.878Z,15.95
2022-12-06T14:53:12.889Z,15.98
2022-12-06T14:56:02.478Z,16.02
2022-12-06T14:58:42.396Z,16.95
2022-12-06T15:01:20.964Z,16.13
2022-12-06T15:04:20.495Z,16.50
2022-12-06T15:06:55.525Z,15.72
2022-12-06T15:09:30.361Z,15.62
2022-12-06T15:12:19.999Z,16.51
2022-12-06T15:14:51.560Z,15.87
2022-12-06T15:17:23.148Z,16.30
2022-12-06T15:19:54.721Z,16.16
2022-12-06T15:22:28.199Z,16.22
2022-12-06T15:24:59.800Z,16.60
2022-12-06T15:27:31.331Z,16.10
2022-12-06T15:30:04.081Z,16.33
2022-12-06T15:32:36.105Z,15.72
2022-12-06T15:35:17.012Z,15.94
2022-12-06T15:37:50.508Z,15.98
2022-12-06T15:40:22.295Z,16.07
2022-12-06T15:42:56.641Z,16.88
2022-12-06T15:45:32.239Z,16.11
2022-12-06T15:48:04.014Z,16.36
2022-12-06T15:50:35.768Z,16.56
2022-12-06T15:53:15.562Z,16.81
2022-12-06T15:55:47.386Z,18.40
2022-12-06T15:58:19.907Z,19.41
2022-12-06T16:00:51.465Z,22.35
2022-12-06T16:03:23.262Z,25.87
2022-12-06T16:05:57.748Z,28.53
2022-12-06T16:08:29.354Z,28.53
2022-12-06T16:11:11.919Z,27.65
2022-12-06T16:13:44.998Z,26.78
2022-12-06T16:16:18.015Z,25.60
2022-12-06T16:18:50.845Z,25.56
2022-12-06T16:21:26.992Z,25.23
2022-12-06T16:24:15.365Z,24.95
2022-12-06T16:26:47.518Z,23.89
2022-12-06T16:29:21.455Z,24.11
2022-12-06T16:31:53.350Z,23.99
2022-12-06T16:34:25.167Z,25.45
2022-12-06T16:37:05.052Z,25.21
2022-12-06T16:39:36.633Z,24.98
2022-12-06T16:42:08.266Z,25.85
2022-12-06T16:44:39.873Z,25.41
2022-12-06T16:47:13.252Z,25.69
2022-12-06T16:49:46.993Z,25.32
2022-12-06T16:52:19.847Z,25.34
2022-12-06T16:54:51.443Z,26.34
2022-12-06T16:57:23.175Z,25.79
2022-12-06T16:59:54.693Z,28.46
2022-12-06T17:02:29.286Z,30.82
2022-12-06T17:05:03.031Z,29.21
2022-12-06T17:07:35.791Z,28.59
2022-12-06T17:10:07.898Z,27.94
2022-12-06T17:12:39.975Z,27.77
2022-12-06T17:15:20.637Z,27.67
2022-12-06T17:17:52.196Z,26.60
2022-12-06T17:20:23.872Z,28.82
2022-12-06T17:23:35.705Z,28.87
2022-12-06T17:26:07.331Z,28.44
2022-12-06T17:28:38.877Z,28.10
2022-12-06T17:31:10.624Z,28.23
2022-12-06T17:33:42.310Z,28.17
2022-12-06T17:36:14.163Z,29.00
2022-12-06T17:38:45.739Z,28.04
2022-12-06T17:41:23.637Z,26.96
2022-12-06T17:43:55.230Z,26.54
2022-12-06T17:46:28.355Z,25.64
2022-12-06T17:49:00.003Z,26.36
2022-12-06T17:51:31.985Z,25.30
2022-12-06T17:54:09.082Z,25.01
2022-12-06T17:56:43.755Z,24.23
2022-12-06T17:59:18.504Z,25.36
2022-12-06T18:02:14.166Z,24.75
2022-12-06T18:04:43.499Z,24.06
2022-12-06T18:07:16.499Z,24.35
2022-12-06T18:09:49.173Z,24.10
2022-12-06T18:12:20.697Z,23.89
2022-12-06T18:14:52.432Z,24.86
2022-12-06T18:17:24.000Z,24.98
2022-12-06T18:19:55.529Z,25.36
2022-12-06T18:22:27.139Z,25.64
2022-12-06T18:24:58.854Z,25.84
2022-12-06T18:27:30.593Z,25.95
2022-12-06T18:30:02.542Z,26.32
2022-12-06T18:32:34.260Z,28.62
2022-12-06T18:35:05.914Z,28.66
2022-12-06T18:37:37.469Z,27.96
2022-12-06T18:40:09.247Z,28.59
2022-12-06T18:42:40.786Z,29.59
2022-12-06T18:45:12.350Z,28.27
2022-12-06T18:47:43.880Z,27.81
2022-12-06T18:50:15.449Z,28.26
2022-12-06T18:52:47.019Z,29.22
2022-12-06T18:55:19.701Z,28.43
2022-12-06T18:57:51.284Z,28.55
2022-12-06T19:00:23.141Z,28.29
2022-12-06T19:02:59.542Z,28.67
2022-12-06T19:06:00.654Z,28.22
2022-12-06T19:08:22.734Z,28.19
2022-12-06T19:10:54.267Z,27.62
2022-12-06T19:13:25.906Z,28.52
2022-12-06T19:16:04.387Z,28.63
2022-12-06T19:18:35.953Z,28.46
2022-12-06T19:21:07.603Z,28.05
2022-12-06T19:23:39.368Z,27.61
2022-12-06T19:26:11.046Z,27.67
2022-12-06T19:28:42.698Z,27.90
2022-12-06T19:31:14.848Z,28.29
2022-12-06T19:33:46.882Z,28.38
2022-12-06T19:36:18.413Z,28.33
2022-12-06T19:38:56.379Z,27.64
2022-12-06T19:41:28.142Z,28.21
2022-12-06T19:43:59.726Z,27.68
2022-12-06T19:46:31.489Z,28.53
2022-12-06T19:49:06.350Z,27.66
2022-12-06T19:51:39.591Z,27.17
2022-12-06T19:54:22.177Z,27.52
2022-12-06T19:56:58.079Z,28.05
2022-12-06T19:59:35.437Z,27.86
2022-12-06T20:02:10.045Z,27.45
2022-12-06T20:04:41.839Z,28.25
2022-12-06T20:07:14.596Z,28.03
2022-12-06T20:09:46.111Z,28.14
2022-12-06T20:12:17.718Z,28.46
2022-12-06T20:14:49.427Z,28.93
2022-12-06T20:17:22.649Z,29.86
2022-12-06T20:19:54.249Z,29.28
2022-12-06T20:22:25.835Z,29.67
2022-12-06T20:24:57.390Z,29.44
2022-12-06T20:27:29.392Z,29.74
2022-12-06T20:30:01.371Z,30.94
2022-12-06T20:32:33.621Z,30.92
2022-12-06T20:35:05.407Z,29.86
2022-12-06T20:37:38.398Z,30.69
2022-12-06T20:40:11.039Z,30.82
2022-12-06T20:42:44.219Z,31.09
2022-12-06T20:45:19.071Z,31.35
2022-12-06T20:47:54.039Z,30.93
2022-12-06T20:50:26.324Z,30.27
2022-12-06T20:52:57.936Z,30.27
2022-12-06T20:55:29.612Z,30.01
2022-12-06T20:58:02.268Z,31.04
2022-12-06T21:00:34.962Z,31.21
2022-12-06T21:03:09.565Z,31.47
2022-12-06T21:05:45.033Z,31.44
2022-12-06T21:08:17.053Z,32.14
2022-12-06T21:11:21.115Z,31.63
2022-12-06T21:13:44.362Z,32.00
2022-12-06T21:16:19.829Z,32.16
2022-12-06T21:19:04.056Z,32.16
2022-12-06T21:21:38.887Z,31.77
2022-12-06T21:24:14.629Z,31.67
2022-12-06T21:26:47.345Z,31.32
2022-12-06T21:29:29.797Z,31.54
2022-12-06T21:32:02.623Z,31.85
2022-12-06T21:34:35.039Z,31.22
2022-12-06T21:37:06.802Z,30.78
2022-12-06T21:39:38.820Z,31.79
2022-12-06T21:42:10.652Z,32.41
2022-12-06T21:44:42.829Z,32.25
2022-12-06T21:47:15.307Z,32.25
2022-12-06T21:49:47.432Z,32.97
2022-12-06T21:52:19.357Z,33.86
2022-12-06T21:54:51.751Z,34.90
2022-12-06T21:57:23.445Z,36.59
2022-12-06T21:59:56.213Z,36.54
2022-12-06T22:02:28.633Z,35.35
2022-12-06T22:05:01.338Z,33.96
2022-12-06T22:07:33.640Z,34.53
2022-12-06T22:10:06.093Z,36.00
2022-12-06T22:12:46.667Z,37.56
2022-12-06T22:15:18.583Z,40.27
2022-12-06T22:17:50.458Z,39.40
2022-12-06T22:20:22.904Z,36.86
2022-12-06T22:22:55.898Z,35.24
2022-12-06T22:25:28.786Z,33.30
2022-12-06T22:28:00.642Z,32.92
2022-12-06T22:30:33.045Z,33.62
2022-12-06T22:33:06.492Z,33.95
2022-12-06T22:35:38.382Z,33.34
2022-12-06T22:38:10.072Z,33.44
2022-12-06T22:40:42.618Z,31.91
2022-12-06T22:43:14.885Z,32.57
2022-12-06T22:45:47.850Z,31.68
2022-12-06T22:48:22.522Z,31.57
2022-12-06T22:50:54.405Z,31.12
2022-12-06T22:53:26.546Z,32.46
2022-12-06T22:56:00.246Z,31.59
2022-12-06T22:58:32.551Z,30.50
2022-12-06T23:01:18.819Z,31.88
2022-12-06T23:03:52.391Z,31.57
2022-12-06T23:06:25.776Z,32.00
2022-12-06T23:08:57.691Z,32.66
2022-12-06T23:11:32.743Z,34.53
2022-12-06T23:14:07.054Z,34.90
2022-12-06T23:16:39.684Z,34.21
2022-12-06T23:19:11.550Z,33.93
2022-12-06T23:21:43.935Z,32.40
2022-12-06T23:24:16.781Z,31.91
2022-12-06T23:26:54.569Z,29.15
2022-12-06T23:29:29.804Z,29.21
2022-12-06T23:32:02.083Z,29.92
2022-12-06T23:34:34.772Z,30.00
2022-12-06T23:37:07.183Z,28.59
2022-12-06T23:39:39.366Z,28.41
2022-12-06T23:42:12.346Z,28.56
2022-12-06T23:44:43.993Z,28.30
2022-12-06T23:47:16.205Z,27.92
2022-12-06T23:49:47.897Z,27.30
2022-12-06T23:52:19.555Z,27.58
2022-12-06T23:54:51.239Z,28.96
2022-12-06T23:57:22.878Z,28.55
2022-12-06T23:59:54.699Z,28.97
